Time;durP1;ratioP1;P1;durP2;ratioP2;P2;SDS_P1;SDS_P2;PMS_P1;PMS_P2;Temp;Humidity;BMP_temperature;BMP_pressure;BME280_temperature;BME280_humidity;BME280_pressure;Samples;Min_cycle;Max_cycle;Signal;HPM_P1;HPM_P2
2023/09/22 00:01:13;;;;;;;0.88;0.63;;;;;;;;;;5101112;28;20024;-70
2023/09/22 00:03:39;;;;;;;1.85;0.57;;;;;;;;;;5096516;28;20028;-70
2023/09/22 00:06:05;;;;;;;1.85;0.70;;;;;;;;;;5104251;28;20028;-70
2023/09/22 00:08:31;;;;;;;2.25;0.70;;;;;;;;;;5106932;28;20035;-69
2023/09/22 00:10:58;;;;;;;2.80;0.77;;;;;;;;;;5105843;28;20395;-69
2023/09/22 00:13:24;;;;;;;0.93;0.60;;;;;;;;;;5097257;28;20046;-70
2023/09/22 00:15:50;;;;;;;1.20;0.68;;;;;;;;;;5107041;28;20110;-69
2023/09/22 00:18:16;;;;;;;1.85;0.80;;;;;;;;;;5092938;28;20048;-69
2023/09/22 00:20:42;;;;;;;0.73;0.50;;;;;;;;;;5096084;28;20028;-69
2023/09/22 00:23:08;;;;;;;2.33;0.90;;;;;;;;;;5099169;28;20108;-69
2023/09/22 00:25:34;;;;;;;2.63;0.70;;;;;;;;;;5109345;28;20026;-69
2023/09/22 00:28:00;;;;;;;5.10;0.88;;;;;;;;;;5097460;28;20024;-69
2023/09/22 00:30:26;;;;;;;1.85;0.88;;;;;;;;;;5096537;28;20016;-69
2023/09/22 00:32:52;;;;;;;2.53;1.00;;;;;;;;;;5095626;28;20020;-69
2023/09/22 00:35:18;;;;;;;1.70;1.08;;;;;;;;;;5099857;28;20035;-69
2023/09/22 00:37:44;;;;;;;1.45;0.90;;;;;;;;;;5096530;28;20024;-69
2023/09/22 00:40:12;;;;;;;1.95;1.00;;;;;;;;;;5103217;28;20468;-69
2023/09/22 00:42:38;;;;;;;1.00;0.70;;;;;;;;;;5093940;28;20035;-69
2023/09/22 00:45:04;;;;;;;2.17;1.00;;;;;;;;;;5080662;28;20053;-69
2023/09/22 00:47:31;;;;;;;3.17;0.60;;;;;;;;;;5062362;28;20028;-69
2023/09/22 00:49:57;;;;;;;0.95;0.77;;;;;;;;;;5062948;28;20109;-69
2023/09/22 00:52:24;;;;;;;2.08;1.27;;;;;;;;;;5064049;28;20067;-69
2023/09/22 00:54:50;;;;;;;1.27;1.00;;;;;;;;;;5064844;28;20350;-69
2023/09/22 00:57:20;;;;;;;2.78;1.00;;;;;;;;;;5062064;28;20354;-69
2023/09/22 00:59:47;;;;;;;1.42;0.93;;;;;;;;;;5062442;28;20141;-69
2023/09/22 01:02:13;;;;;;;1.27;0.88;;;;;;;;;;5062026;28;20079;-69
2023/09/22 01:04:39;;;;;;;3.40;0.93;;;;;;;;;;5066882;28;20420;-69
2023/09/22 01:07:06;;;;;;;2.05;0.88;;;;;;;;;;5062871;28;20016;-69
2023/09/22 01:09:32;;;;;;;1.17;0.70;;;;;;;;;;5058619;28;20441;-69
2023/09/22 01:11:58;;;;;;;1.23;1.00;;;;;;;;;;5063335;28;20055;-69
2023/09/22 01:14:24;;;;;;;2.38;0.88;;;;;;;;;;5059828;28;21300;-69
2023/09/22 01:16:51;;;;;;;1.70;1.08;;;;;;;;;;5079359;28;20099;-69
2023/09/22 01:19:18;;;;;;;4.18;1.23;;;;;;;;;;5081063;28;20033;-69
2023/09/22 01:21:44;;;;;;;3.72;1.00;;;;;;;;;;5078873;28;20086;-69
2023/09/22 01:24:11;;;;;;;1.67;0.82;;;;;;;;;;5083785;28;20024;-69
2023/09/22 01:26:38;;;;;;;0.95;0.85;;;;;;;;;;5068172;28;20031;-68
2023/09/22 01:29:04;;;;;;;1.77;0.90;;;;;;;;;;5073089;28;20032;-69
2023/09/22 01:31:30;;;;;;;1.35;1.10;;;;;;;;;;5077907;28;20024;-69
2023/09/22 01:33:56;;;;;;;3.95;0.93;;;;;;;;;;5084533;28;20092;-69
2023/09/22 01:36:22;;;;;;;1.08;0.68;;;;;;;;;;5088541;28;20020;-68
2023/09/22 01:38:48;;;;;;;1.15;0.85;;;;;;;;;;5075506;28;20074;-69
2023/09/22 01:41:14;;;;;;;1.30;1.10;;;;;;;;;;5081328;28;20016;-68
2023/09/22 01:43:41;;;;;;;0.82;0.75;;;;;;;;;;5086991;28;20031;-68
2023/09/22 01:46:07;;;;;;;3.80;0.73;;;;;;;;;;5088261;28;20059;-68
2023/09/22 01:48:33;;;;;;;2.38;0.90;;;;;;;;;;5099020;28;20380;-68
2023/09/22 01:51:03;;;;;;;1.17;1.00;;;;;;;;;;5106767;28;20027;-68
2023/09/22 01:53:29;;;;;;;0.90;0.77;;;;;;;;;;5098285;28;20020;-70
2023/09/22 01:55:55;;;;;;;4.07;0.95;;;;;;;;;;5102779;28;20311;-69
2023/09/22 01:58:21;;;;;;;1.25;0.75;;;;;;;;;;5107318;28;20095;-69
2023/09/22 02:00:51;;;;;;;3.00;1.08;;;;;;;;;;5091971;28;20551;-69
2023/09/22 02:03:18;;;;;;;2.30;0.90;;;;;;;;;;5096821;28;20031;-69
2023/09/22 02:05:44;;;;;;;2.38;1.08;;;;;;;;;;5107054;28;20098;-69
2023/09/22 02:08:10;;;;;;;4.80;1.10;;;;;;;;;;5110285;28;20458;-68
2023/09/22 02:10:36;;;;;;;1.63;1.05;;;;;;;;;;5098348;28;20034;-69
2023/09/22 02:13:04;;;;;;;2.10;1.40;;;;;;;;;;5100358;28;20016;-71
2023/09/22 02:15:30;;;;;;;1.92;0.95;;;;;;;;;;5100262;28;20080;-69
2023/09/22 02:17:56;;;;;;;1.35;1.10;;;;;;;;;;5111829;28;20414;-70
2023/09/22 02:20:22;;;;;;;1.48;1.35;;;;;;;;;;5101271;28;20023;-70
2023/09/22 02:22:55;;;;;;;4.65;1.08;;;;;;;;;;5103410;28;20024;-70
2023/09/22 02:25:22;;;;;;;1.10;0.70;;;;;;;;;;5109846;28;20088;-70
2023/09/22 02:27:49;;;;;;;2.10;0.93;;;;;;;;;;5096768;28;20020;-71
2023/09/22 02:30:18;;;;;;;1.60;1.30;;;;;;;;;;5101649;28;20089;-70
2023/09/22 02:32:48;;;;;;;2.25;0.90;;;;;;;;;;5101983;28;20020;-70
2023/09/22 02:35:14;;;;;;;3.95;1.02;;;;;;;;;;5082156;28;20028;-71
2023/09/22 02:37:40;;;;;;;1.85;1.25;;;;;;;;;;5099199;28;20070;-71
2023/09/22 02:40:07;;;;;;;1.23;0.90;;;;;;;;;;5105646;28;20024;-70
2023/09/22 02:42:33;;;;;;;2.35;0.90;;;;;;;;;;5110100;28;20028;-70
2023/09/22 02:44:59;;;;;;;4.63;1.08;;;;;;;;;;5107046;28;20395;-69
2023/09/22 02:47:27;;;;;;;2.60;1.10;;;;;;;;;;5087559;28;20068;-70
2023/09/22 02:49:54;;;;;;;1.90;1.10;;;;;;;;;;5108225;28;20452;-70
2023/09/22 02:52:20;;;;;;;1.50;1.02;;;;;;;;;;5107537;28;20029;-69
2023/09/22 02:54:46;;;;;;;1.00;0.73;;;;;;;;;;5097199;28;20023;-69
2023/09/22 02:57:12;;;;;;;1.42;0.90;;;;;;;;;;5101578;28;20032;-69
2023/09/22 02:59:38;;;;;;;2.42;1.00;;;;;;;;;;5110521;28;20032;-70
2023/09/22 03:02:04;;;;;;;1.17;0.90;;;;;;;;;;5099427;28;20032;-70
2023/09/22 03:04:33;;;;;;;0.95;0.95;;;;;;;;;;5100773;28;20023;-69
2023/09/22 03:06:59;;;;;;;1.97;0.70;;;;;;;;;;5105135;28;20034;-68
2023/09/22 03:09:25;;;;;;;1.52;0.88;;;;;;;;;;5092804;28;20023;-68
2023/09/22 03:11:51;;;;;;;1.15;1.00;;;;;;;;;;5102096;28;20027;-68
2023/09/22 03:14:17;;;;;;;1.80;0.88;;;;;;;;;;5104276;28;20531;-68
2023/09/22 03:16:43;;;;;;;2.22;1.10;;;;;;;;;;5103091;28;20425;-68
2023/09/22 03:19:09;;;;;;;8.90;1.17;;;;;;;;;;5104606;28;20024;-69
2023/09/22 03:21:36;;;;;;;0.70;0.70;;;;;;;;;;5100237;28;20039;-69
2023/09/22 03:24:02;;;;;;;1.58;1.10;;;;;;;;;;5107348;28;20030;-69
2023/09/22 03:26:29;;;;;;;2.97;1.10;;;;;;;;;;5090181;28;20107;-69
2023/09/22 03:28:54;;;;;;;2.55;1.05;;;;;;;;;;5096345;28;20165;-69
2023/09/22 03:31:20;;;;;;;2.13;1.05;;;;;;;;;;5097826;28;20676;-68
2023/09/22 03:33:47;;;;;;;3.53;1.13;;;;;;;;;;5109464;28;20035;-69
2023/09/22 03:36:13;;;;;;;2.22;1.20;;;;;;;;;;5097983;28;20486;-69
2023/09/22 03:38:45;;;;;;;2.03;1.05;;;;;;;;;;5098740;28;20113;-69
2023/09/22 03:41:12;;;;;;;2.08;0.85;;;;;;;;;;5103725;28;20107;-68
2023/09/22 03:43:38;;;;;;;1.38;1.23;;;;;;;;;;5093409;28;20039;-69
2023/09/22 03:46:04;;;;;;;2.05;1.10;;;;;;;;;;5096147;28;20484;-69
2023/09/22 03:48:30;;;;;;;2.38;0.93;;;;;;;;;;5100845;28;20027;-68
2023/09/22 03:50:56;;;;;;;4.55;1.30;;;;;;;;;;5107997;28;20020;-69
2023/09/22 03:53:22;;;;;;;2.28;0.98;;;;;;;;;;5101401;28;20586;-69
2023/09/22 03:55:49;;;;;;;2.40;0.95;;;;;;;;;;5101151;28;20031;-71
2023/09/22 03:58:16;;;;;;;2.97;0.85;;;;;;;;;;5104763;28;20011;-68
2023/09/22 04:00:43;;;;;;;0.75;0.63;;;;;;;;;;5106590;28;20028;-69
2023/09/22 04:03:09;;;;;;;2.08;0.80;;;;;;;;;;5094565;28;20040;-69
2023/09/22 04:05:37;;;;;;;3.58;1.00;;;;;;;;;;5103893;28;20099;-70
2023/09/22 04:08:03;;;;;;;1.85;0.70;;;;;;;;;;5108639;28;20016;-68
2023/09/22 04:10:29;;;;;;;1.23;0.82;;;;;;;;;;5096881;28;20499;-69
2023/09/22 04:12:55;;;;;;;1.65;1.08;;;;;;;;;;5098516;28;20016;-69
2023/09/22 04:15:23;;;;;;;3.20;0.77;;;;;;;;;;5101936;28;20202;-69
2023/09/22 04:17:50;;;;;;;1.95;0.90;;;;;;;;;;5088650;28;20028;-69
2023/09/22 04:20:26;;;;;;;1.38;0.80;;;;;;;;;;5091688;28;20161;-69
2023/09/22 04:22:53;;;;;;;1.60;1.02;;;;;;;;;;5092218;28;20096;-69
2023/09/22 04:25:19;;;;;;;1.75;0.80;;;;;;;;;;5092932;28;20024;-69
2023/09/22 04:27:53;;;;;;;4.07;0.90;;;;;;;;;;5092936;28;20058;-68
2023/09/22 04:30:20;;;;;;;0.80;0.80;;;;;;;;;;5093954;28;20460;-68
2023/09/22 04:32:47;;;;;;;1.45;0.93;;;;;;;;;;5089371;28;20432;-68
2023/09/22 04:35:14;;;;;;;0.75;0.70;;;;;;;;;;5090451;28;20450;-68
2023/09/22 04:37:40;;;;;;;2.20;0.90;;;;;;;;;;5094068;28;20016;-69
2023/09/22 04:40:22;;;;;;;1.17;0.85;;;;;;;;;;5091960;28;20028;-69
2023/09/22 04:42:49;;;;;;;1.92;0.80;;;;;;;;;;5096008;28;20072;-69
2023/09/22 04:45:15;;;;;;;2.03;1.00;;;;;;;;;;5079948;28;20545;-71
2023/09/22 04:47:41;;;;;;;3.58;1.10;;;;;;;;;;5068116;28;20100;-69
2023/09/22 04:50:08;;;;;;;2.50;1.00;;;;;;;;;;5069904;28;20571;-69
2023/09/22 04:52:34;;;;;;;1.80;1.23;;;;;;;;;;5085474;28;20105;-69
2023/09/22 04:55:00;;;;;;;0.98;0.90;;;;;;;;;;5075540;28;20108;-69
2023/09/22 04:57:26;;;;;;;0.80;0.80;;;;;;;;;;5083146;28;20034;-69
2023/09/22 04:59:54;;;;;;;4.13;0.98;;;;;;;;;;5088610;28;20028;-69
2023/09/22 05:02:20;;;;;;;1.85;0.85;;;;;;;;;;5076174;28;20446;-69
2023/09/22 05:04:47;;;;;;;1.17;0.90;;;;;;;;;;5077591;28;20024;-69
2023/09/22 05:07:13;;;;;;;8.85;1.65;;;;;;;;;;5083080;28;20461;-67
2023/09/22 05:09:39;;;;;;;5.55;1.30;;;;;;;;;;5078738;28;20043;-69
2023/09/22 05:12:05;;;;;;;1.45;0.88;;;;;;;;;;5077129;28;20137;-69
2023/09/22 05:14:31;;;;;;;2.03;1.25;;;;;;;;;;5080485;28;20021;-69
2023/09/22 05:16:57;;;;;;;3.65;1.20;;;;;;;;;;5087557;28;20519;-68
2023/09/22 05:19:23;;;;;;;4.07;1.50;;;;;;;;;;5079729;28;20032;-69
2023/09/22 05:21:49;;;;;;;1.70;1.20;;;;;;;;;;5080805;28;20314;-68
2023/09/22 05:24:15;;;;;;;3.20;1.67;;;;;;;;;;5072485;28;20027;-67
2023/09/22 05:26:41;;;;;;;2.45;1.25;;;;;;;;;;5074660;28;20029;-75
2023/09/22 05:29:07;;;;;;;2.17;1.17;;;;;;;;;;5065750;28;20524;-70
2023/09/22 05:31:36;;;;;;;1.40;1.30;;;;;;;;;;5076788;28;20031;-74
2023/09/22 05:34:02;;;;;;;2.80;1.48;;;;;;;;;;5082390;28;20029;-76
2023/09/22 05:36:29;;;;;;;2.30;1.17;;;;;;;;;;5077342;28;20030;-73
2023/09/22 05:38:56;;;;;;;5.05;1.48;;;;;;;;;;5074459;28;20017;-71
2023/09/22 05:41:22;;;;;;;2.45;1.33;;;;;;;;;;5074353;28;20598;-73
2023/09/22 05:43:49;;;;;;;4.60;1.27;;;;;;;;;;5092664;28;20044;-72
2023/09/22 05:46:15;;;;;;;4.50;1.55;;;;;;;;;;5091836;28;20481;-72
2023/09/22 05:48:42;;;;;;;12.55;1.48;;;;;;;;;;5102535;28;20016;-72
2023/09/22 05:51:08;;;;;;;5.57;1.27;;;;;;;;;;5110584;28;20034;-72
2023/09/22 05:53:35;;;;;;;5.88;1.40;;;;;;;;;;5084570;28;20384;-72
2023/09/22 05:56:08;;;;;;;3.15;1.10;;;;;;;;;;5104561;28;20433;-79
2023/09/22 05:58:38;;;;;;;1.27;1.10;;;;;;;;;;5086922;28;20046;-73
2023/09/22 06:01:07;;;;;;;4.10;1.25;;;;;;;;;;5107099;28;20032;-79
2023/09/22 06:03:34;;;;;;;2.92;1.17;;;;;;;;;;5098370;28;20045;-73
2023/09/22 06:06:04;;;;;;;1.48;0.90;;;;;;;;;;5089666;28;20061;-79
2023/09/22 06:08:31;;;;;;;1.80;1.02;;;;;;;;;;5107375;28;20031;-71
2023/09/22 06:11:01;;;;;;;3.17;1.38;;;;;;;;;;5096465;28;20028;-73
2023/09/22 06:13:27;;;;;;;;;;;;;;;;;;5101633;28;20020;-71
2023/09/22 06:15:53;;;;;;;1.98;0.90;;;;;;;;;;5108210;28;20367;-72
2023/09/22 06:18:19;;;;;;;0.98;0.85;;;;;;;;;;5113907;28;20019;-72
2023/09/22 06:20:45;;;;;;;1.40;1.10;;;;;;;;;;5111636;28;20115;-71
2023/09/22 06:23:11;;;;;;;3.55;0.90;;;;;;;;;;5102824;28;20346;-72
2023/09/22 06:25:37;;;;;;;1.42;0.95;;;;;;;;;;5102881;28;20030;-68
2023/09/22 06:28:05;;;;;;;4.13;1.00;;;;;;;;;;5100857;28;20027;-80
2023/09/22 06:30:34;;;;;;;3.20;0.98;;;;;;;;;;5098442;28;20066;-72
2023/09/22 06:33:01;;;;;;;2.15;1.05;;;;;;;;;;5086719;28;20031;-77
2023/09/22 06:35:27;;;;;;;1.42;0.90;;;;;;;;;;5102190;28;20418;-72
2023/09/22 06:37:53;;;;;;;2.13;0.90;;;;;;;;;;5099133;28;20024;-72
2023/09/22 06:40:19;;;;;;;1.63;0.77;;;;;;;;;;5096292;28;20502;-71
2023/09/22 06:42:45;;;;;;;1.75;0.85;;;;;;;;;;5095184;28;20034;-72
2023/09/22 06:45:12;;;;;;;0.98;0.75;;;;;;;;;;5094294;28;20052;-72
2023/09/22 06:47:40;;;;;;;2.58;0.90;;;;;;;;;;5096761;28;20038;-73
2023/09/22 06:50:09;;;;;;;2.85;1.00;;;;;;;;;;5101334;28;20095;-73
2023/09/22 06:52:36;;;;;;;2.30;1.10;;;;;;;;;;5098335;28;20028;-73
2023/09/22 06:55:02;;;;;;;0.80;0.75;;;;;;;;;;5097331;28;20052;-77
2023/09/22 06:57:29;;;;;;;2.05;1.00;;;;;;;;;;5105632;28;20088;-73
2023/09/22 06:59:55;;;;;;;2.92;0.80;;;;;;;;;;5103595;28;20032;-72
2023/09/22 07:02:22;;;;;;;2.25;0.77;;;;;;;;;;5097810;28;20598;-72
2023/09/22 07:04:48;;;;;;;5.30;1.02;;;;;;;;;;5100122;28;20031;-71
2023/09/22 07:07:14;;;;;;;3.17;1.10;;;;;;;;;;5088784;28;20020;-73
2023/09/22 07:09:43;;;;;;;1.95;0.90;;;;;;;;;;5100907;28;20051;-72
2023/09/22 07:12:09;;;;;;;1.63;0.70;;;;;;;;;;5100467;28;20028;-72
2023/09/22 07:14:36;;;;;;;1.63;0.90;;;;;;;;;;5103451;28;20041;-72
2023/09/22 07:17:02;;;;;;;2.60;0.90;;;;;;;;;;5111394;28;20286;-78
2023/09/22 07:19:30;;;;;;;2.38;1.00;;;;;;;;;;5102049;28;20043;-73
2023/09/22 07:21:56;;;;;;;4.90;1.58;;;;;;;;;;5104716;28;20059;-73
2023/09/22 07:24:22;;;;;;;1.20;0.60;;;;;;;;;;5094233;28;20051;-74
2023/09/22 07:26:50;;;;;;;1.23;0.50;;;;;;;;;;5107369;28;20369;-72
2023/09/22 07:29:17;;;;;;;2.70;0.82;;;;;;;;;;5095488;28;20032;-72
2023/09/22 07:31:45;;;;;;;1.80;1.00;;;;;;;;;;5103809;28;20023;-72
2023/09/22 07:34:11;;;;;;;2.72;0.95;;;;;;;;;;5095797;28;20026;-72
2023/09/22 07:36:37;;;;;;;1.98;0.90;;;;;;;;;;5097255;28;20030;-71
2023/09/22 07:39:03;;;;;;;1.85;0.90;;;;;;;;;;5099165;28;20101;-79
2023/09/22 07:41:30;;;;;;;0.85;0.70;;;;;;;;;;5087152;28;20028;-73
2023/09/22 07:43:56;;;;;;;3.80;1.02;;;;;;;;;;5092885;28;20370;-73
2023/09/22 07:46:22;;;;;;;2.05;1.00;;;;;;;;;;5094055;28;20051;-70
2023/09/22 07:48:51;;;;;;;2.38;1.02;;;;;;;;;;5100957;28;20415;-70
2023/09/22 07:51:17;;;;;;;3.72;1.10;;;;;;;;;;5109711;28;20023;-70
2023/09/22 07:53:45;;;;;;;2.50;1.23;;;;;;;;;;5099494;28;20077;-70
2023/09/22 07:56:12;;;;;;;1.98;1.42;;;;;;;;;;5102232;28;20023;-70
2023/09/22 07:58:41;;;;;;;1.75;1.20;;;;;;;;;;5103823;28;20341;-70
2023/09/22 08:01:12;;;;;;;2.03;1.30;;;;;;;;;;5104108;28;20032;-70
2023/09/22 08:03:38;;;;;;;3.08;1.25;;;;;;;;;;5098918;28;20016;-70
2023/09/22 08:06:05;;;;;;;1.25;1.10;;;;;;;;;;5105271;28;20027;-70
2023/09/22 08:08:32;;;;;;;2.58;1.00;;;;;;;;;;5106562;28;20400;-70
2023/09/22 08:10:59;;;;;;;7.00;0.90;;;;;;;;;;5094377;28;20039;-70
2023/09/22 08:13:25;;;;;;;2.47;0.77;;;;;;;;;;5087972;28;20035;-70
2023/09/22 08:15:51;;;;;;;1.60;1.20;;;;;;;;;;5100293;28;20392;-70
2023/09/22 08:18:17;;;;;;;2.03;0.70;;;;;;;;;;5096143;28;20077;-70
2023/09/22 08:20:43;;;;;;;2.20;0.85;;;;;;;;;;5091069;28;20399;-70
2023/09/22 08:23:09;;;;;;;0.95;0.88;;;;;;;;;;5090053;28;20021;-70
2023/09/22 08:25:43;;;;;;;1.30;0.80;;;;;;;;;;5095779;28;20403;-70
2023/09/22 08:28:12;;;;;;;2.75;0.95;;;;;;;;;;5091370;28;20036;-70
2023/09/22 08:30:39;;;;;;;2.93;1.00;;;;;;;;;;5096229;28;20028;-70
2023/09/22 08:33:05;;;;;;;2.33;0.82;;;;;;;;;;5100024;28;20048;-70
2023/09/22 08:35:31;;;;;;;1.80;1.00;;;;;;;;;;5095742;28;20059;-70
2023/09/22 08:38:00;;;;;;;4.93;0.90;;;;;;;;;;5097322;28;20027;-71
2023/09/22 08:40:26;;;;;;;2.47;0.90;;;;;;;;;;5106488;28;20081;-70
2023/09/22 08:42:54;;;;;;;3.35;1.02;;;;;;;;;;5090254;28;20027;-70
2023/09/22 08:45:21;;;;;;;1.65;1.05;;;;;;;;;;5091961;28;20036;-71
2023/09/22 08:47:48;;;;;;;2.97;1.27;;;;;;;;;;5087167;28;20090;-70
2023/09/22 08:50:14;;;;;;;1.70;0.77;;;;;;;;;;5087293;28;20460;-70
2023/09/22 08:52:42;;;;;;;2.38;1.10;;;;;;;;;;5093593;28;20464;-72
2023/09/22 08:55:11;;;;;;;2.67;0.70;;;;;;;;;;5098931;28;20028;-70
2023/09/22 08:57:37;;;;;;;5.07;0.90;;;;;;;;;;5101338;28;20024;-70
2023/09/22 09:00:11;;;;;;;1.13;0.80;;;;;;;;;;5098821;28;20406;-70
2023/09/22 09:02:38;;;;;;;2.25;0.85;;;;;;;;;;5098091;28;20042;-70
2023/09/22 09:05:17;;;;;;;1.08;0.80;;;;;;;;;;5095378;28;20025;-70
2023/09/22 09:07:43;;;;;;;1.57;0.73;;;;;;;;;;5095741;28;20016;-70
2023/09/22 09:10:10;;;;;;;1.95;0.77;;;;;;;;;;5100108;28;20379;-70
2023/09/22 09:12:45;;;;;;;2.20;0.90;;;;;;;;;;5108556;28;20020;-70
2023/09/22 09:15:11;;;;;;;2.72;0.93;;;;;;;;;;5103376;28;20040;-70
2023/09/22 09:17:37;;;;;;;4.93;1.00;;;;;;;;;;5096618;28;20024;-70
2023/09/22 09:20:05;;;;;;;1.42;0.70;;;;;;;;;;5104609;28;20035;-70
2023/09/22 09:22:40;;;;;;;4.68;0.88;;;;;;;;;;5099402;28;20024;-71
2023/09/22 09:25:09;;;;;;;1.23;0.77;;;;;;;;;;5096145;28;20031;-69
2023/09/22 09:27:35;;;;;;;1.38;0.90;;;;;;;;;;5098869;28;20024;-70
2023/09/22 09:30:13;;;;;;;4.97;0.90;;;;;;;;;;5105538;28;20102;-69
2023/09/22 09:32:40;;;;;;;1.63;0.80;;;;;;;;;;5107660;28;20028;-70
2023/09/22 09:35:06;;;;;;;1.08;0.63;;;;;;;;;;5097483;28;20029;-69
2023/09/22 09:37:32;;;;;;;0.93;0.80;;;;;;;;;;5101399;28;20028;-70
2023/09/22 09:39:58;;;;;;;0.98;0.60;;;;;;;;;;5100967;28;20103;-69
2023/09/22 09:42:25;;;;;;;3.65;0.82;;;;;;;;;;5113280;28;20656;-68
2023/09/22 09:44:52;;;;;;;2.05;1.05;;;;;;;;;;5100289;28;20070;-68
2023/09/22 09:47:23;;;;;;;1.77;0.77;;;;;;;;;;5102135;28;20132;-68
2023/09/22 09:49:51;;;;;;;1.60;0.50;;;;;;;;;;5113145;28;20023;-68
2023/09/22 09:52:18;;;;;;;3.72;1.00;;;;;;;;;;5099822;28;20020;-68
2023/09/22 09:54:47;;;;;;;1.67;0.88;;;;;;;;;;5104072;28;20164;-68
2023/09/22 09:57:14;;;;;;;6.03;0.70;;;;;;;;;;5103096;28;20008;-68
2023/09/22 09:59:41;;;;;;;3.00;0.60;;;;;;;;;;5106119;28;20020;-68
2023/09/22 10:02:09;;;;;;;1.77;0.77;;;;;;;;;;5100019;28;20189;-69
2023/09/22 10:04:35;;;;;;;2.20;0.52;;;;;;;;;;5108028;28;20038;-68
2023/09/22 10:07:02;;;;;;;2.65;0.70;;;;;;;;;;5097826;28;20524;-68
2023/09/22 10:09:29;;;;;;;3.35;1.15;;;;;;;;;;5112054;28;20028;-68
2023/09/22 10:11:55;;;;;;;2.38;0.70;;;;;;;;;;5103933;28;20030;-71
2023/09/22 10:14:40;;;;;;;1.58;0.93;;;;;;;;;;5094395;28;20062;-68
2023/09/22 10:17:19;;;;;;;2.25;0.75;;;;;;;;;;5106157;28;20024;-69
2023/09/22 10:19:46;;;;;;;2.47;0.60;;;;;;;;;;5092219;28;20017;-69
2023/09/22 10:22:12;;;;;;;2.17;0.70;;;;;;;;;;5100811;28;20031;-69
2023/09/22 10:24:38;;;;;;;2.22;0.68;;;;;;;;;;5102048;28;20080;-70
2023/09/22 10:27:14;;;;;;;4.00;1.00;;;;;;;;;;5103697;28;21301;-68
2023/09/22 10:29:54;;;;;;;5.63;0.70;;;;;;;;;;5096352;28;20016;-68
2023/09/22 10:32:21;;;;;;;0.95;0.60;;;;;;;;;;5092579;28;20102;-68
2023/09/22 10:34:57;;;;;;;2.63;0.90;;;;;;;;;;5109543;28;20451;-69
2023/09/22 10:37:26;;;;;;;1.00;0.50;;;;;;;;;;5095914;28;20103;-68
2023/09/22 10:39:53;;;;;;;1.05;0.65;;;;;;;;;;5101353;28;20435;-68
2023/09/22 10:42:22;;;;;;;1.25;0.88;;;;;;;;;;5108711;28;20030;-69
2023/09/22 10:45:05;;;;;;;0.93;0.70;;;;;;;;;;5110754;28;20524;-70
2023/09/22 10:47:37;;;;;;;1.95;0.63;;;;;;;;;;5094626;28;20019;-71
2023/09/22 10:50:13;;;;;;;0.50;0.50;;;;;;;;;;5111706;28;20112;-69
2023/09/22 10:52:39;;;;;;;0.50;0.50;;;;;;;;;;5098795;28;20019;-70
2023/09/22 10:55:06;;;;;;;1.15;0.40;;;;;;;;;;5099783;28;20063;-69
2023/09/22 10:57:33;;;;;;;1.42;0.40;;;;;;;;;;5108306;28;20012;-70
2023/09/22 11:00:00;;;;;;;0.68;0.55;;;;;;;;;;5089919;28;20047;-69
2023/09/22 11:02:27;;;;;;;1.13;0.55;;;;;;;;;;5107865;28;20028;-70
2023/09/22 11:04:53;;;;;;;1.40;0.60;;;;;;;;;;5101574;28;20102;-70
2023/09/22 11:07:31;;;;;;;1.45;0.65;;;;;;;;;;5110013;28;20052;-69
2023/09/22 11:09:57;;;;;;;1.27;0.60;;;;;;;;;;5102445;28;20039;-77
2023/09/22 11:12:24;;;;;;;1.73;0.68;;;;;;;;;;5104310;28;20023;-70
2023/09/22 11:14:50;;;;;;;1.25;0.60;;;;;;;;;;5107355;28;20050;-69
2023/09/22 11:17:16;;;;;;;0.95;0.75;;;;;;;;;;5107315;28;20429;-71
2023/09/22 11:19:51;;;;;;;1.85;0.90;;;;;;;;;;5095264;28;20008;-71
2023/09/22 11:22:17;;;;;;;1.20;0.85;;;;;;;;;;5094547;28;20028;-69
2023/09/22 11:24:45;;;;;;;3.63;0.60;;;;;;;;;;5098344;28;20380;-70
2023/09/22 11:27:11;;;;;;;2.58;0.63;;;;;;;;;;5079180;28;20457;-69
2023/09/22 11:29:39;;;;;;;0.93;0.65;;;;;;;;;;5100244;28;20024;-70
2023/09/22 11:32:08;;;;;;;2.22;0.70;;;;;;;;;;5101692;28;20041;-69
2023/09/22 11:34:55;;;;;;;2.03;1.10;;;;;;;;;;5098161;28;20437;-70
2023/09/22 11:37:30;;;;;;;1.95;0.57;;;;;;;;;;5087409;28;20388;-71
2023/09/22 11:39:56;;;;;;;3.00;1.23;;;;;;;;;;5105885;28;20056;-71
2023/09/22 11:42:23;;;;;;;0.77;0.50;;;;;;;;;;5110528;28;20294;-71
2023/09/22 11:44:57;;;;;;;1.50;0.68;;;;;;;;;;5098929;28;20183;-70
2023/09/22 11:47:23;;;;;;;1.95;0.70;;;21.10;99.90;;;;;;5092243;28;20013;-70
2023/09/22 11:49:48;;;;;;;2.13;0.88;;;21.10;99.90;;;;;;5110760;28;20104;-70
2023/09/22 11:52:14;;;;;;;3.78;0.60;;;21.30;99.90;;;;;;5097997;28;20024;-69
2023/09/22 11:54:40;;;;;;;0.93;0.70;;;21.50;99.90;;;;;;5093892;28;20020;-70
2023/09/22 11:57:05;;;;;;;1.33;0.90;;;21.70;99.90;;;;;;5092300;28;20476;-75
2023/09/22 11:59:33;;;;;;;1.95;0.60;;;22.00;99.90;;;;;;5105021;28;20131;-69
2023/09/22 12:02:03;;;;;;;3.35;0.80;;;22.30;99.90;;;;;;5096657;28;20036;-69
2023/09/22 12:04:29;;;;;;;2.35;0.70;;;22.70;99.90;;;;;;5104874;28;20043;-69
2023/09/22 12:06:55;;;;;;;2.38;0.68;;;22.80;99.90;;;;;;5107309;28;20461;-68
2023/09/22 12:09:20;;;;;;;1.88;0.93;;;22.80;99.90;;;;;;5093404;28;20111;-69
2023/09/22 12:11:48;;;;;;;2.55;1.42;;;23.00;99.90;;;;;;5098884;28;20460;-68
2023/09/22 12:14:14;;;;;;;3.80;0.80;;;23.20;99.90;;;;;;5105932;28;20110;-69
2023/09/22 12:16:40;;;;;;;3.88;0.88;;;23.20;99.90;;;;;;5110831;28;20110;-69
2023/09/22 12:19:06;;;;;;;1.55;0.82;;;23.00;99.90;;;;;;5092234;28;20020;-72
2023/09/22 12:21:32;;;;;;;2.92;0.85;;;22.80;99.90;;;;;;5102359;28;20032;-69
2023/09/22 12:23:58;;;;;;;5.05;0.80;;;22.60;99.90;;;;;;5102336;28;20028;-70
2023/09/22 12:26:25;;;;;;;3.28;1.05;;;22.50;99.90;;;;;;5093371;28;20715;-69
2023/09/22 12:28:51;;;;;;;4.95;1.00;;;22.20;99.90;;;;;;5091722;28;20472;-70
2023/09/22 12:31:18;;;;;;;3.50;0.90;;;21.90;99.90;;;;;;5077662;28;20028;-69
2023/09/22 12:33:47;;;;;;;2.83;1.17;;;21.80;99.90;;;;;;5102705;28;20090;-69
2023/09/22 12:36:14;;;;;;;2.15;0.95;;;21.60;99.90;;;;;;5095944;28;20476;-69
2023/09/22 12:38:44;;;;;;;2.30;0.70;;;21.30;99.90;;;;;;5104039;28;20055;-70
2023/09/22 12:41:10;;;;;;;3.30;1.00;;;21.30;99.90;;;;;;5103048;28;20069;-70
2023/09/22 12:43:36;;;;;;;2.38;0.90;;;21.20;99.90;;;;;;5103784;28;20443;-68
2023/09/22 12:46:06;;;;;;;5.78;1.20;;;21.60;99.90;;;;;;5094644;28;20116;-72
2023/09/22 12:48:31;;;;;;;3.13;1.27;;;22.20;99.90;;;;;;5102346;28;20461;-69
2023/09/22 12:50:57;;;;;;;2.15;0.70;;;22.60;99.90;;;;;;5106991;28;20031;-69
2023/09/22 12:53:26;;;;;;;1.70;0.90;;;23.10;99.90;;;;;;5093738;28;20074;-70
2023/09/22 12:55:57;;;;;;;2.40;1.27;;;23.60;99.90;;;;;;5104716;28;20030;-72
2023/09/22 12:58:26;;;;;;;3.83;1.23;;;24.00;99.90;;;;;;5108280;28;20011;-72
2023/09/22 13:00:52;;;;;;;2.58;1.02;;;23.70;99.90;;;;;;5097812;28;20047;-70
2023/09/22 13:03:17;;;;;;;2.65;0.85;;;23.30;99.90;;;;;;5092129;28;20024;-72
2023/09/22 13:05:43;;;;;;;5.28;0.98;;;23.00;99.90;;;;;;5107360;28;20099;-72
2023/09/22 13:08:09;;;;;;;6.97;1.65;;;23.20;99.90;;;;;;5097632;28;20444;-72
2023/09/22 13:10:40;;;;;;;3.03;0.93;;;23.20;99.90;;;;;;5097255;28;20027;-74
2023/09/22 13:13:05;;;;;;;5.97;1.48;;;23.20;99.90;;;;;;5099380;28;20032;-77
2023/09/22 13:15:32;;;;;;;4.10;0.90;;;23.00;99.90;;;;;;5094287;28;20020;-75
2023/09/22 13:17:58;;;;;;;4.43;1.10;;;22.70;99.90;;;;;;5091595;28;20032;-73
2023/09/22 13:20:23;;;;;;;6.97;1.05;;;22.40;99.90;;;;;;5094901;28;20530;-75
2023/09/22 13:22:49;;;;;;;2.53;1.00;;;22.20;99.90;;;;;;5105913;28;20027;-73
2023/09/22 13:25:14;;;;;;;1.77;1.13;;;22.10;99.90;;;;;;5091564;28;20094;-73
2023/09/22 13:27:41;;;;;;;8.05;1.42;;;22.20;99.90;;;;;;5104101;28;20035;-74
2023/09/22 13:30:08;;;;;;;8.02;1.10;;;22.50;99.90;;;;;;5095461;28;20400;-73
2023/09/22 13:32:34;;;;;;;1.98;0.90;;;22.90;99.90;;;;;;5091740;28;20055;-73
2023/09/22 13:34:59;;;;;;;1.83;0.80;;;23.50;99.90;;;;;;5107333;28;20056;-74
2023/09/22 13:37:25;;;;;;;4.47;1.20;;;23.90;99.20;;;;;;5087291;28;20031;-72
2023/09/22 13:39:52;;;;;;;3.28;1.08;;;23.90;98.70;;;;;;5091081;28;20050;-73
2023/09/22 13:42:18;;;;;;;2.47;1.00;;;23.90;98.80;;;;;;5093862;28;20169;-73
2023/09/22 13:44:43;;;;;;;3.08;1.45;;;23.90;98.70;;;;;;5096192;28;20199;-73
2023/09/22 13:47:09;;;;;;;2.28;1.13;;;24.00;98.30;;;;;;5096694;28;20032;-73
2023/09/22 13:49:37;;;;;;;2.17;0.80;;;23.80;97.80;;;;;;5101581;28;20047;-74
2023/09/22 13:52:03;;;;;;;2.13;1.20;;;23.80;99.10;;;;;;5106536;28;20038;-77
2023/09/22 13:54:29;;;;;;;2.92;1.10;;;23.80;99.10;;;;;;5093688;28;20024;-73
2023/09/22 13:56:54;;;;;;;2.42;1.00;;;23.70;99.10;;;;;;5098777;28;20055;-73
2023/09/22 13:59:20;;;;;;;3.15;1.20;;;23.70;98.70;;;;;;5106567;28;20019;-73
2023/09/22 14:01:46;;;;;;;4.20;1.00;;;23.70;98.70;;;;;;5111274;28;20038;-72
2023/09/22 14:04:11;;;;;;;1.80;0.70;;;23.90;98.70;;;;;;5097400;28;20024;-73
2023/09/22 14:06:37;;;;;;;2.03;0.85;;;23.90;98.70;;;;;;5100358;28;20426;-73
2023/09/22 14:09:04;;;;;;;3.28;1.00;;;23.90;98.60;;;;;;5106624;28;20533;-77
2023/09/22 14:11:31;;;;;;;2.58;1.30;;;23.90;98.60;;;;;;5091101;28;20028;-73
2023/09/22 14:13:56;;;;;;;2.97;1.10;;;23.90;98.30;;;;;;5101496;28;20066;-75
2023/09/22 14:16:24;;;;;;;1.58;1.20;;;23.90;97.50;;;;;;5093719;28;20047;-73
2023/09/22 14:18:51;;;;;;;4.25;0.95;;;23.90;97.30;;;;;;5110456;28;20023;-73